Royer Lake, Indiana
Current Conditions -  °F | °C
As of 12:35 AM on Friday 28 Nov 2014 (Local Time) from KIRS Reporting Station
Light Snow Light Snow  
Wind Chill: -6°   Ceiling: 4400
Heat Index: -6°   Visibility: 10mi
Dew Point: -8°   Wind: 0mph
Humidity: 86%   Direction: NA
Pressure: 30.32"   Gusts: NA
Location:  41.6561°N, 85.3683°W
Report Text: KIRS 280535Z AUTO 00000KT 10SM -SN OVC044 M06/M08 A3032 RMK AO2
Loading
Personal Weather Stations






























Interactive Weather Map New forecast layout! Learn more

10-Day Weather Forecast

Advertisements
Track Severe Weather on mobile